sensor_id;sensor_type;location;lat;lon;timestamp;P1;durP1;ratioP1;P2;durP2;ratioP2
75459;SDS011;64039;53.060;9.342;2023-06-10T00:02:10;8.07;;;3.00;;
75459;SDS011;64039;53.060;9.342;2023-06-10T00:04:36;14.30;;;3.17;;
75459;SDS011;64039;53.060;9.342;2023-06-10T00:07:05;7.85;;;2.92;;
75459;SDS011;64039;53.060;9.342;2023-06-10T00:09:36;8.68;;;2.92;;
75459;SDS011;64039;53.060;9.342;2023-06-10T00:12:06;7.82;;;3.13;;
75459;SDS011;64039;53.060;9.342;2023-06-10T00:14:36;7.95;;;3.35;;
75459;SDS011;64039;53.060;9.342;2023-06-10T00:17:02;9.63;;;3.00;;
75459;SDS011;64039;53.060;9.342;2023-06-10T00:19:28;7.70;;;2.80;;
75459;SDS011;64039;53.060;9.342;2023-06-10T00:21:55;9.23;;;3.13;;
75459;SDS011;64039;53.060;9.342;2023-06-10T00:24:21;6.35;;;2.65;;
75459;SDS011;64039;53.060;9.342;2023-06-10T00:26:47;7.15;;;3.00;;
75459;SDS011;64039;53.060;9.342;2023-06-10T00:29:13;7.72;;;2.70;;
75459;SDS011;64039;53.060;9.342;2023-06-10T00:31:39;7.45;;;3.53;;
75459;SDS011;64039;53.060;9.342;2023-06-10T00:34:05;6.65;;;3.08;;
75459;SDS011;64039;53.060;9.342;2023-06-10T00:36:30;7.28;;;3.08;;
75459;SDS011;64039;53.060;9.342;2023-06-10T00:38:56;9.15;;;3.30;;
75459;SDS011;64039;53.060;9.342;2023-06-10T00:41:22;9.32;;;3.83;;
75459;SDS011;64039;53.060;9.342;2023-06-10T00:43:48;8.73;;;3.22;;
75459;SDS011;64039;53.060;9.342;2023-06-10T00:46:13;10.98;;;3.30;;
75459;SDS011;64039;53.060;9.342;2023-06-10T00:48:40;8.82;;;3.00;;
75459;SDS011;64039;53.060;9.342;2023-06-10T00:51:07;7.13;;;3.00;;
75459;SDS011;64039;53.060;9.342;2023-06-10T00:53:34;7.70;;;3.20;;
75459;SDS011;64039;53.060;9.342;2023-06-10T00:56:04;8.18;;;3.17;;
75459;SDS011;64039;53.060;9.342;2023-06-10T00:58:29;7.50;;;3.30;;
75459;SDS011;64039;53.060;9.342;2023-06-10T01:00:56;11.55;;;3.38;;
75459;SDS011;64039;53.060;9.342;2023-06-10T01:03:22;10.85;;;3.20;;
75459;SDS011;64039;53.060;9.342;2023-06-10T01:05:50;6.90;;;2.83;;
75459;SDS011;64039;53.060;9.342;2023-06-10T01:08:37;6.60;;;3.13;;
75459;SDS011;64039;53.060;9.342;2023-06-10T01:11:14;7.30;;;3.00;;
75459;SDS011;64039;53.060;9.342;2023-06-10T01:13:45;12.23;;;3.70;;
75459;SDS011;64039;53.060;9.342;2023-06-10T01:16:16;7.65;;;3.08;;
75459;SDS011;64039;53.060;9.342;2023-06-10T01:18:43;7.57;;;3.20;;
75459;SDS011;64039;53.060;9.342;2023-06-10T01:21:12;8.75;;;2.65;;
75459;SDS011;64039;53.060;9.342;2023-06-10T01:23:38;6.45;;;3.40;;
75459;SDS011;64039;53.060;9.342;2023-06-10T01:26:09;9.07;;;2.80;;
75459;SDS011;64039;53.060;9.342;2023-06-10T01:28:38;7.40;;;3.55;;
75459;SDS011;64039;53.060;9.342;2023-06-10T01:33:47;7.38;;;3.08;;
75459;SDS011;64039;53.060;9.342;2023-06-10T01:36:16;8.27;;;2.70;;
75459;SDS011;64039;53.060;9.342;2023-06-10T01:38:43;7.53;;;3.25;;
75459;SDS011;64039;53.060;9.342;2023-06-10T01:41:10;8.32;;;3.47;;
75459;SDS011;64039;53.060;9.342;2023-06-10T01:43:38;8.77;;;3.63;;
75459;SDS011;64039;53.060;9.342;2023-06-10T01:46:04;9.10;;;3.42;;
75459;SDS011;64039;53.060;9.342;2023-06-10T01:48:30;7.00;;;3.33;;
75459;SDS011;64039;53.060;9.342;2023-06-10T01:50:56;7.88;;;3.35;;
75459;SDS011;64039;53.060;9.342;2023-06-10T01:53:22;6.93;;;3.15;;
75459;SDS011;64039;53.060;9.342;2023-06-10T01:55:47;8.93;;;3.17;;
75459;SDS011;64039;53.060;9.342;2023-06-10T01:58:13;7.53;;;3.47;;
75459;SDS011;64039;53.060;9.342;2023-06-10T02:00:39;9.30;;;3.47;;
75459;SDS011;64039;53.060;9.342;2023-06-10T02:03:05;7.38;;;3.15;;
75459;SDS011;64039;53.060;9.342;2023-06-10T02:05:30;7.60;;;3.67;;
75459;SDS011;64039;53.060;9.342;2023-06-10T02:07:55;10.30;;;3.75;;
75459;SDS011;64039;53.060;9.342;2023-06-10T02:10:21;6.00;;;3.20;;
75459;SDS011;64039;53.060;9.342;2023-06-10T02:12:47;9.45;;;3.40;;
75459;SDS011;64039;53.060;9.342;2023-06-10T02:15:12;9.23;;;3.60;;
75459;SDS011;64039;53.060;9.342;2023-06-10T02:17:37;9.38;;;3.38;;
75459;SDS011;64039;53.060;9.342;2023-06-10T02:20:03;7.70;;;3.05;;
75459;SDS011;64039;53.060;9.342;2023-06-10T02:22:32;8.32;;;3.80;;
75459;SDS011;64039;53.060;9.342;2023-06-10T02:24:58;11.07;;;3.53;;
75459;SDS011;64039;53.060;9.342;2023-06-10T02:27:23;8.30;;;3.33;;
75459;SDS011;64039;53.060;9.342;2023-06-10T02:29:49;9.65;;;3.33;;
75459;SDS011;64039;53.060;9.342;2023-06-10T02:32:15;7.72;;;3.45;;
75459;SDS011;64039;53.060;9.342;2023-06-10T02:34:41;10.23;;;3.42;;
75459;SDS011;64039;53.060;9.342;2023-06-10T02:37:07;6.53;;;3.55;;
75459;SDS011;64039;53.060;9.342;2023-06-10T02:39:33;10.15;;;3.80;;
75459;SDS011;64039;53.060;9.342;2023-06-10T02:41:59;10.32;;;4.57;;
75459;SDS011;64039;53.060;9.342;2023-06-10T02:44:24;8.65;;;4.18;;
75459;SDS011;64039;53.060;9.342;2023-06-10T02:46:50;7.88;;;4.15;;
75459;SDS011;64039;53.060;9.342;2023-06-10T02:49:15;6.45;;;3.65;;
75459;SDS011;64039;53.060;9.342;2023-06-10T02:51:41;9.60;;;4.45;;
75459;SDS011;64039;53.060;9.342;2023-06-10T02:54:06;9.50;;;4.07;;
75459;SDS011;64039;53.060;9.342;2023-06-10T02:56:32;10.82;;;4.20;;
75459;SDS011;64039;53.060;9.342;2023-06-10T02:58:58;9.15;;;3.92;;
75459;SDS011;64039;53.060;9.342;2023-06-10T03:01:24;6.75;;;3.85;;
75459;SDS011;64039;53.060;9.342;2023-06-10T03:03:49;10.00;;;4.00;;
75459;SDS011;64039;53.060;9.342;2023-06-10T03:06:15;8.63;;;4.30;;
75459;SDS011;64039;53.060;9.342;2023-06-10T03:08:41;8.93;;;4.00;;
75459;SDS011;64039;53.060;9.342;2023-06-10T03:11:06;10.23;;;4.10;;
75459;SDS011;64039;53.060;9.342;2023-06-10T03:13:32;7.28;;;4.40;;
75459;SDS011;64039;53.060;9.342;2023-06-10T03:15:57;7.63;;;3.70;;
75459;SDS011;64039;53.060;9.342;2023-06-10T03:18:26;10.55;;;3.60;;
75459;SDS011;64039;53.060;9.342;2023-06-10T03:20:52;9.68;;;3.92;;
75459;SDS011;64039;53.060;9.342;2023-06-10T03:23:18;10.13;;;4.00;;
75459;SDS011;64039;53.060;9.342;2023-06-10T03:25:44;11.20;;;4.13;;
75459;SDS011;64039;53.060;9.342;2023-06-10T03:28:10;7.55;;;3.72;;
75459;SDS011;64039;53.060;9.342;2023-06-10T03:30:36;9.45;;;4.10;;
75459;SDS011;64039;53.060;9.342;2023-06-10T03:33:01;8.05;;;3.90;;
75459;SDS011;64039;53.060;9.342;2023-06-10T03:35:27;8.30;;;4.13;;
75459;SDS011;64039;53.060;9.342;2023-06-10T03:37:52;7.43;;;3.97;;
75459;SDS011;64039;53.060;9.342;2023-06-10T03:40:18;8.23;;;4.32;;
75459;SDS011;64039;53.060;9.342;2023-06-10T03:42:43;7.60;;;4.15;;
75459;SDS011;64039;53.060;9.342;2023-06-10T03:45:11;9.68;;;4.13;;
75459;SDS011;64039;53.060;9.342;2023-06-10T03:47:37;10.65;;;3.85;;
75459;SDS011;64039;53.060;9.342;2023-06-10T03:50:05;8.50;;;4.15;;
75459;SDS011;64039;53.060;9.342;2023-06-10T03:52:31;11.82;;;4.20;;
75459;SDS011;64039;53.060;9.342;2023-06-10T03:54:57;8.93;;;4.18;;
75459;SDS011;64039;53.060;9.342;2023-06-10T03:57:22;10.68;;;3.95;;
75459;SDS011;64039;53.060;9.342;2023-06-10T03:59:48;10.30;;;3.92;;
75459;SDS011;64039;53.060;9.342;2023-06-10T04:02:13;9.10;;;4.25;;
75459;SDS011;64039;53.060;9.342;2023-06-10T04:04:39;12.60;;;4.45;;
75459;SDS011;64039;53.060;9.342;2023-06-10T04:07:04;10.50;;;4.13;;
75459;SDS011;64039;53.060;9.342;2023-06-10T04:09:30;11.77;;;4.05;;
75459;SDS011;64039;53.060;9.342;2023-06-10T04:11:55;11.90;;;4.60;;
75459;SDS011;64039;53.060;9.342;2023-06-10T04:14:21;8.38;;;3.92;;
75459;SDS011;64039;53.060;9.342;2023-06-10T04:16:46;6.40;;;3.72;;
75459;SDS011;64039;53.060;9.342;2023-06-10T04:19:12;12.07;;;3.90;;
75459;SDS011;64039;53.060;9.342;2023-06-10T04:21:37;12.75;;;3.67;;
75459;SDS011;64039;53.060;9.342;2023-06-10T04:24:03;8.63;;;3.72;;
75459;SDS011;64039;53.060;9.342;2023-06-10T04:26:28;8.30;;;3.65;;
75459;SDS011;64039;53.060;9.342;2023-06-10T04:28:54;8.25;;;3.65;;
75459;SDS011;64039;53.060;9.342;2023-06-10T04:31:19;7.45;;;3.65;;
75459;SDS011;64039;53.060;9.342;2023-06-10T04:33:45;6.78;;;3.60;;
75459;SDS011;64039;53.060;9.342;2023-06-10T04:36:11;8.27;;;3.70;;
75459;SDS011;64039;53.060;9.342;2023-06-10T04:38:36;8.63;;;3.80;;
75459;SDS011;64039;53.060;9.342;2023-06-10T04:41:02;8.02;;;3.85;;
75459;SDS011;64039;53.060;9.342;2023-06-10T04:43:27;8.27;;;3.78;;
75459;SDS011;64039;53.060;9.342;2023-06-10T04:45:55;8.15;;;3.72;;
75459;SDS011;64039;53.060;9.342;2023-06-10T04:48:20;8.85;;;4.05;;
75459;SDS011;64039;53.060;9.342;2023-06-10T04:50:46;7.97;;;3.42;;
75459;SDS011;64039;53.060;9.342;2023-06-10T04:53:11;6.40;;;3.65;;
75459;SDS011;64039;53.060;9.342;2023-06-10T04:55:37;8.07;;;4.05;;
75459;SDS011;64039;53.060;9.342;2023-06-10T04:58:02;8.85;;;4.10;;
75459;SDS011;64039;53.060;9.342;2023-06-10T05:00:28;9.68;;;4.03;;
75459;SDS011;64039;53.060;9.342;2023-06-10T05:02:53;6.60;;;3.33;;
75459;SDS011;64039;53.060;9.342;2023-06-10T05:05:21;7.28;;;3.40;;
75459;SDS011;64039;53.060;9.342;2023-06-10T05:07:46;8.13;;;3.90;;
75459;SDS011;64039;53.060;9.342;2023-06-10T05:10:12;8.73;;;4.20;;
75459;SDS011;64039;53.060;9.342;2023-06-10T05:12:40;7.88;;;3.38;;
75459;SDS011;64039;53.060;9.342;2023-06-10T05:15:07;11.75;;;4.32;;
75459;SDS011;64039;53.060;9.342;2023-06-10T05:17:33;7.68;;;3.83;;
75459;SDS011;64039;53.060;9.342;2023-06-10T05:20:00;10.93;;;4.10;;
75459;SDS011;64039;53.060;9.342;2023-06-10T05:22:27;7.88;;;3.70;;
75459;SDS011;64039;53.060;9.342;2023-06-10T05:24:53;9.52;;;3.70;;
75459;SDS011;64039;53.060;9.342;2023-06-10T05:27:18;6.65;;;3.65;;
75459;SDS011;64039;53.060;9.342;2023-06-10T05:29:44;9.23;;;3.85;;
75459;SDS011;64039;53.060;9.342;2023-06-10T05:32:10;6.85;;;3.63;;
75459;SDS011;64039;53.060;9.342;2023-06-10T05:34:36;7.10;;;3.40;;
75459;SDS011;64039;53.060;9.342;2023-06-10T05:37:02;6.18;;;3.35;;
75459;SDS011;64039;53.060;9.342;2023-06-10T05:39:27;7.18;;;3.60;;
75459;SDS011;64039;53.060;9.342;2023-06-10T05:41:53;10.05;;;3.83;;
75459;SDS011;64039;53.060;9.342;2023-06-10T05:44:18;6.80;;;3.58;;
75459;SDS011;64039;53.060;9.342;2023-06-10T05:46:44;7.40;;;3.58;;
75459;SDS011;64039;53.060;9.342;2023-06-10T05:49:09;8.48;;;3.60;;
75459;SDS011;64039;53.060;9.342;2023-06-10T05:51:35;8.65;;;3.63;;
75459;SDS011;64039;53.060;9.342;2023-06-10T05:54:02;9.80;;;3.95;;
75459;SDS011;64039;53.060;9.342;2023-06-10T05:56:27;6.63;;;3.50;;
75459;SDS011;64039;53.060;9.342;2023-06-10T05:58:53;11.32;;;3.80;;
75459;SDS011;64039;53.060;9.342;2023-06-10T06:01:18;5.85;;;3.25;;
75459;SDS011;64039;53.060;9.342;2023-06-10T06:03:44;12.45;;;4.00;;
75459;SDS011;64039;53.060;9.342;2023-06-10T06:06:09;9.82;;;3.53;;
75459;SDS011;64039;53.060;9.342;2023-06-10T06:08:35;10.65;;;3.75;;
75459;SDS011;64039;53.060;9.342;2023-06-10T06:11:00;7.75;;;3.65;;
75459;SDS011;64039;53.060;9.342;2023-06-10T06:13:25;8.57;;;3.70;;
75459;SDS011;64039;53.060;9.342;2023-06-10T06:15:51;8.82;;;3.63;;
75459;SDS011;64039;53.060;9.342;2023-06-10T06:18:16;7.03;;;3.80;;
75459;SDS011;64039;53.060;9.342;2023-06-10T06:20:43;7.32;;;3.50;;
75459;SDS011;64039;53.060;9.342;2023-06-10T06:23:09;8.02;;;3.33;;
75459;SDS011;64039;53.060;9.342;2023-06-10T06:25:36;8.70;;;3.55;;
75459;SDS011;64039;53.060;9.342;2023-06-10T06:28:04;7.40;;;3.47;;
75459;SDS011;64039;53.060;9.342;2023-06-10T06:30:34;8.05;;;3.28;;
75459;SDS011;64039;53.060;9.342;2023-06-10T06:33:00;8.50;;;3.78;;
75459;SDS011;64039;53.060;9.342;2023-06-10T06:35:25;6.75;;;3.33;;
75459;SDS011;64039;53.060;9.342;2023-06-10T06:37:51;7.75;;;3.45;;
75459;SDS011;64039;53.060;9.342;2023-06-10T06:40:16;10.23;;;4.00;;
75459;SDS011;64039;53.060;9.342;2023-06-10T06:42:41;6.68;;;3.42;;
75459;SDS011;64039;53.060;9.342;2023-06-10T06:45:07;9.35;;;3.47;;
75459;SDS011;64039;53.060;9.342;2023-06-10T06:47:33;6.65;;;3.58;;
75459;SDS011;64039;53.060;9.342;2023-06-10T06:49:58;10.65;;;3.58;;
75459;SDS011;64039;53.060;9.342;2023-06-10T06:52:23;7.20;;;3.10;;
75459;SDS011;64039;53.060;9.342;2023-06-10T06:54:49;9.63;;;3.53;;
75459;SDS011;64039;53.060;9.342;2023-06-10T06:57:14;10.07;;;3.67;;
75459;SDS011;64039;53.060;9.342;2023-06-10T06:59:40;7.13;;;2.97;;
75459;SDS011;64039;53.060;9.342;2023-06-10T07:02:06;7.45;;;3.70;;
75459;SDS011;64039;53.060;9.342;2023-06-10T07:04:31;9.65;;;3.45;;
75459;SDS011;64039;53.060;9.342;2023-06-10T07:06:57;8.70;;;3.33;;
75459;SDS011;64039;53.060;9.342;2023-06-10T07:09:22;8.13;;;3.90;;
75459;SDS011;64039;53.060;9.342;2023-06-10T07:11:47;15.13;;;3.30;;
75459;SDS011;64039;53.060;9.342;2023-06-10T07:14:13;9.38;;;3.25;;
75459;SDS011;64039;53.060;9.342;2023-06-10T07:16:38;8.10;;;3.50;;
75459;SDS011;64039;53.060;9.342;2023-06-10T07:19:04;5.85;;;3.30;;
75459;SDS011;64039;53.060;9.342;2023-06-10T07:21:29;8.25;;;3.42;;
75459;SDS011;64039;53.060;9.342;2023-06-10T07:23:55;5.90;;;3.05;;
75459;SDS011;64039;53.060;9.342;2023-06-10T07:26:24;8.30;;;3.70;;
75459;SDS011;64039;53.060;9.342;2023-06-10T07:28:50;8.55;;;3.40;;
75459;SDS011;64039;53.060;9.342;2023-06-10T07:31:16;11.25;;;3.35;;
75459;SDS011;64039;53.060;9.342;2023-06-10T07:33:42;11.15;;;4.00;;
75459;SDS011;64039;53.060;9.342;2023-06-10T07:36:08;7.35;;;3.28;;
75459;SDS011;64039;53.060;9.342;2023-06-10T07:38:34;8.13;;;3.47;;
75459;SDS011;64039;53.060;9.342;2023-06-10T07:41:00;7.35;;;3.25;;
75459;SDS011;64039;53.060;9.342;2023-06-10T07:43:25;6.53;;;3.17;;
75459;SDS011;64039;53.060;9.342;2023-06-10T07:45:51;9.60;;;3.60;;
75459;SDS011;64039;53.060;9.342;2023-06-10T07:48:16;10.30;;;3.72;;
75459;SDS011;64039;53.060;9.342;2023-06-10T07:50:42;7.03;;;3.38;;
75459;SDS011;64039;53.060;9.342;2023-06-10T07:53:07;8.68;;;3.60;;
75459;SDS011;64039;53.060;9.342;2023-06-10T07:55:33;10.75;;;3.47;;
75459;SDS011;64039;53.060;9.342;2023-06-10T07:57:58;9.35;;;3.22;;
75459;SDS011;64039;53.060;9.342;2023-06-10T08:00:24;8.90;;;3.33;;
75459;SDS011;64039;53.060;9.342;2023-06-10T08:02:49;7.90;;;3.60;;
75459;SDS011;64039;53.060;9.342;2023-06-10T08:05:15;6.70;;;3.47;;
75459;SDS011;64039;53.060;9.342;2023-06-10T08:07:41;9.13;;;3.55;;
75459;SDS011;64039;53.060;9.342;2023-06-10T08:10:07;6.20;;;3.05;;
75459;SDS011;64039;53.060;9.342;2023-06-10T08:12:33;8.05;;;3.20;;
75459;SDS011;64039;53.060;9.342;2023-06-10T08:14:58;7.78;;;3.40;;
75459;SDS011;64039;53.060;9.342;2023-06-10T08:17:24;8.68;;;3.30;;
75459;SDS011;64039;53.060;9.342;2023-06-10T08:19:50;7.05;;;3.00;;
75459;SDS011;64039;53.060;9.342;2023-06-10T08:22:15;8.52;;;3.15;;
75459;SDS011;64039;53.060;9.342;2023-06-10T08:24:41;7.50;;;3.17;;
75459;SDS011;64039;53.060;9.342;2023-06-10T08:27:06;7.85;;;3.25;;
75459;SDS011;64039;53.060;9.342;2023-06-10T08:29:32;8.38;;;3.03;;
75459;SDS011;64039;53.060;9.342;2023-06-10T08:31:58;7.93;;;3.20;;
75459;SDS011;64039;53.060;9.342;2023-06-10T08:34:23;8.45;;;3.40;;
75459;SDS011;64039;53.060;9.342;2023-06-10T08:36:49;11.25;;;3.42;;
75459;SDS011;64039;53.060;9.342;2023-06-10T08:39:20;4.35;;;2.63;;
75459;SDS011;64039;53.060;9.342;2023-06-10T08:44:31;9.45;;;3.08;;
75459;SDS011;64039;53.060;9.342;2023-06-10T08:46:59;8.00;;;3.10;;
75459;SDS011;64039;53.060;9.342;2023-06-10T08:49:29;7.00;;;2.60;;
75459;SDS011;64039;53.060;9.342;2023-06-10T08:51:58;9.15;;;2.90;;
75459;SDS011;64039;53.060;9.342;2023-06-10T08:54:27;5.28;;;2.58;;
75459;SDS011;64039;53.060;9.342;2023-06-10T08:56:56;6.05;;;2.72;;
75459;SDS011;64039;53.060;9.342;2023-06-10T08:59:24;6.78;;;2.90;;
75459;SDS011;64039;53.060;9.342;2023-06-10T09:01:50;6.25;;;2.85;;
75459;SDS011;64039;53.060;9.342;2023-06-10T09:04:17;7.93;;;3.00;;
75459;SDS011;64039;53.060;9.342;2023-06-10T09:06:48;6.70;;;3.10;;
75459;SDS011;64039;53.060;9.342;2023-06-10T09:09:14;9.50;;;2.65;;
75459;SDS011;64039;53.060;9.342;2023-06-10T09:11:43;4.82;;;2.40;;
75459;SDS011;64039;53.060;9.342;2023-06-10T09:14:09;5.72;;;2.58;;
75459;SDS011;64039;53.060;9.342;2023-06-10T09:16:34;5.97;;;2.83;;
75459;SDS011;64039;53.060;9.342;2023-06-10T09:19:00;8.88;;;2.83;;
75459;SDS011;64039;53.060;9.342;2023-06-10T09:21:32;5.22;;;3.00;;
75459;SDS011;64039;53.060;9.342;2023-06-10T09:23:58;6.45;;;2.75;;
75459;SDS011;64039;53.060;9.342;2023-06-10T09:26:27;8.35;;;2.90;;
75459;SDS011;64039;53.060;9.342;2023-06-10T09:28:57;7.20;;;3.00;;
75459;SDS011;64039;53.060;9.342;2023-06-10T09:31:35;11.88;;;3.13;;
75459;SDS011;64039;53.060;9.342;2023-06-10T09:34:20;5.30;;;2.80;;
75459;SDS011;64039;53.060;9.342;2023-06-10T09:36:49;7.32;;;2.78;;
75459;SDS011;64039;53.060;9.342;2023-06-10T09:39:16;6.18;;;2.70;;
75459;SDS011;64039;53.060;9.342;2023-06-10T09:41:43;6.43;;;2.75;;
75459;SDS011;64039;53.060;9.342;2023-06-10T09:44:14;6.68;;;2.58;;
75459;SDS011;64039;53.060;9.342;2023-06-10T09:46:41;5.03;;;2.50;;
75459;SDS011;64039;53.060;9.342;2023-06-10T09:49:09;5.90;;;2.72;;
75459;SDS011;64039;53.060;9.342;2023-06-10T09:51:35;5.95;;;2.85;;
75459;SDS011;64039;53.060;9.342;2023-06-10T09:54:02;5.18;;;2.70;;
75459;SDS011;64039;53.060;9.342;2023-06-10T09:56:35;5.32;;;2.50;;
75459;SDS011;64039;53.060;9.342;2023-06-10T09:59:01;6.72;;;2.72;;
75459;SDS011;64039;53.060;9.342;2023-06-10T10:01:28;6.07;;;2.97;;
75459;SDS011;64039;53.060;9.342;2023-06-10T10:03:55;4.72;;;2.40;;
75459;SDS011;64039;53.060;9.342;2023-06-10T10:06:21;5.88;;;2.35;;
75459;SDS011;64039;53.060;9.342;2023-06-10T10:08:50;8.10;;;2.50;;
75459;SDS011;64039;53.060;9.342;2023-06-10T10:11:19;5.15;;;2.70;;
75459;SDS011;64039;53.060;9.342;2023-06-10T10:13:52;5.10;;;2.60;;
75459;SDS011;64039;53.060;9.342;2023-06-10T10:16:36;7.40;;;2.70;;
75459;SDS011;64039;53.060;9.342;2023-06-10T10:19:13;8.85;;;2.67;;
75459;SDS011;64039;53.060;9.342;2023-06-10T10:21:54;4.88;;;2.35;;
75459;SDS011;64039;53.060;9.342;2023-06-10T10:24:33;4.97;;;2.40;;
75459;SDS011;64039;53.060;9.342;2023-06-10T10:27:01;4.47;;;2.70;;
75459;SDS011;64039;53.060;9.342;2023-06-10T10:29:38;6.38;;;2.30;;
75459;SDS011;64039;53.060;9.342;2023-06-10T10:32:04;4.43;;;2.63;;
75459;SDS011;64039;53.060;9.342;2023-06-10T10:34:37;6.38;;;2.72;;
75459;SDS011;64039;53.060;9.342;2023-06-10T10:37:08;5.65;;;2.55;;
75459;SDS011;64039;53.060;9.342;2023-06-10T10:39:34;7.07;;;2.72;;
75459;SDS011;64039;53.060;9.342;2023-06-10T10:42:01;7.03;;;2.88;;
75459;SDS011;64039;53.060;9.342;2023-06-10T10:44:29;6.53;;;2.70;;
75459;SDS011;64039;53.060;9.342;2023-06-10T10:46:55;5.43;;;2.85;;
75459;SDS011;64039;53.060;9.342;2023-06-10T10:49:22;9.45;;;2.80;;
75459;SDS011;64039;53.060;9.342;2023-06-10T10:51:56;5.63;;;2.47;;
75459;SDS011;64039;53.060;9.342;2023-06-10T10:54:29;5.80;;;2.75;;
75459;SDS011;64039;53.060;9.342;2023-06-10T10:57:12;3.92;;;2.72;;
75459;SDS011;64039;53.060;9.342;2023-06-10T10:59:56;3.83;;;2.20;;
75459;SDS011;64039;53.060;9.342;2023-06-10T11:05:05;5.88;;;2.58;;
75459;SDS011;64039;53.060;9.342;2023-06-10T11:07:35;4.50;;;2.60;;
75459;SDS011;64039;53.060;9.342;2023-06-10T11:10:08;4.40;;;2.65;;
75459;SDS011;64039;53.060;9.342;2023-06-10T11:12:42;5.90;;;2.65;;
75459;SDS011;64039;53.060;9.342;2023-06-10T11:15:10;5.95;;;2.45;;
75459;SDS011;64039;53.060;9.342;2023-06-10T11:17:37;4.60;;;2.50;;
75459;SDS011;64039;53.060;9.342;2023-06-10T11:23:25;3.42;;;2.53;;
75459;SDS011;64039;53.060;9.342;2023-06-10T11:25:51;5.30;;;2.90;;
75459;SDS011;64039;53.060;9.342;2023-06-10T11:28:19;4.65;;;2.35;;
75459;SDS011;64039;53.060;9.342;2023-06-10T11:30:45;5.00;;;2.50;;
75459;SDS011;64039;53.060;9.342;2023-06-10T11:33:17;4.47;;;2.50;;
75459;SDS011;64039;53.060;9.342;2023-06-10T11:35:43;5.30;;;2.58;;
75459;SDS011;64039;53.060;9.342;2023-06-10T11:38:09;4.03;;;2.45;;
75459;SDS011;64039;53.060;9.342;2023-06-10T11:40:36;5.25;;;2.47;;
75459;SDS011;64039;53.060;9.342;2023-06-10T11:43:03;6.75;;;2.58;;
75459;SDS011;64039;53.060;9.342;2023-06-10T11:45:29;4.78;;;2.58;;
75459;SDS011;64039;53.060;9.342;2023-06-10T11:47:58;4.57;;;2.70;;
75459;SDS011;64039;53.060;9.342;2023-06-10T11:50:30;5.22;;;2.70;;
75459;SDS011;64039;53.060;9.342;2023-06-10T11:52:57;4.60;;;2.70;;
75459;SDS011;64039;53.060;9.342;2023-06-10T11:55:24;4.70;;;2.63;;
75459;SDS011;64039;53.060;9.342;2023-06-10T11:57:51;4.18;;;2.45;;
75459;SDS011;64039;53.060;9.342;2023-06-10T12:00:23;3.83;;;2.47;;
75459;SDS011;64039;53.060;9.342;2023-06-10T12:02:58;4.47;;;2.50;;
75459;SDS011;64039;53.060;9.342;2023-06-10T12:05:25;5.60;;;2.78;;
75459;SDS011;64039;53.060;9.342;2023-06-10T12:08:07;10.38;;;3.15;;
75459;SDS011;64039;53.060;9.342;2023-06-10T12:10:34;4.00;;;2.40;;
75459;SDS011;64039;53.060;9.342;2023-06-10T12:13:05;4.85;;;2.50;;
75459;SDS011;64039;53.060;9.342;2023-06-10T12:15:30;5.38;;;2.88;;
75459;SDS011;64039;53.060;9.342;2023-06-10T12:17:57;5.25;;;2.85;;
75459;SDS011;64039;53.060;9.342;2023-06-10T12:20:40;4.88;;;2.90;;
75459;SDS011;64039;53.060;9.342;2023-06-10T12:23:11;4.38;;;2.70;;
75459;SDS011;64039;53.060;9.342;2023-06-10T12:25:38;5.93;;;2.90;;
75459;SDS011;64039;53.060;9.342;2023-06-10T12:28:05;6.78;;;2.50;;
75459;SDS011;64039;53.060;9.342;2023-06-10T12:30:31;5.60;;;2.88;;
75459;SDS011;64039;53.060;9.342;2023-06-10T12:32:58;4.82;;;2.75;;
75459;SDS011;64039;53.060;9.342;2023-06-10T12:35:28;5.22;;;3.08;;
75459;SDS011;64039;53.060;9.342;2023-06-10T12:40:32;5.53;;;3.03;;
75459;SDS011;64039;53.060;9.342;2023-06-10T12:42:59;7.32;;;2.95;;
75459;SDS011;64039;53.060;9.342;2023-06-10T12:45:26;6.90;;;3.25;;
75459;SDS011;64039;53.060;9.342;2023-06-10T12:48:03;8.35;;;3.17;;
75459;SDS011;64039;53.060;9.342;2023-06-10T12:50:30;5.38;;;3.10;;
75459;SDS011;64039;53.060;9.342;2023-06-10T12:52:56;4.75;;;2.85;;
75459;SDS011;64039;53.060;9.342;2023-06-10T12:55:22;4.80;;;2.97;;
75459;SDS011;64039;53.060;9.342;2023-06-10T12:57:48;4.50;;;2.88;;
75459;SDS011;64039;53.060;9.342;2023-06-10T13:00:15;4.50;;;2.90;;
75459;SDS011;64039;53.060;9.342;2023-06-10T13:02:41;5.82;;;2.88;;
75459;SDS011;64039;53.060;9.342;2023-06-10T13:05:07;6.85;;;3.08;;
75459;SDS011;64039;53.060;9.342;2023-06-10T13:07:33;5.32;;;3.20;;
75459;SDS011;64039;53.060;9.342;2023-06-10T13:09:58;3.92;;;3.00;;
75459;SDS011;64039;53.060;9.342;2023-06-10T13:12:25;5.47;;;2.92;;
75459;SDS011;64039;53.060;9.342;2023-06-10T13:14:54;5.88;;;3.00;;
75459;SDS011;64039;53.060;9.342;2023-06-10T13:17:20;6.97;;;3.20;;
75459;SDS011;64039;53.060;9.342;2023-06-10T13:19:46;5.10;;;3.17;;
75459;SDS011;64039;53.060;9.342;2023-06-10T13:22:11;9.55;;;3.40;;
75459;SDS011;64039;53.060;9.342;2023-06-10T13:24:40;7.85;;;3.30;;
75459;SDS011;64039;53.060;9.342;2023-06-10T13:27:06;7.57;;;3.25;;
75459;SDS011;64039;53.060;9.342;2023-06-10T13:29:32;4.65;;;3.20;;
75459;SDS011;64039;53.060;9.342;2023-06-10T13:31:57;5.38;;;3.28;;
75459;SDS011;64039;53.060;9.342;2023-06-10T13:34:23;4.80;;;3.13;;
75459;SDS011;64039;53.060;9.342;2023-06-10T13:36:48;6.63;;;3.70;;
75459;SDS011;64039;53.060;9.342;2023-06-10T13:39:14;4.68;;;3.53;;
75459;SDS011;64039;53.060;9.342;2023-06-10T13:41:40;6.22;;;3.80;;
75459;SDS011;64039;53.060;9.342;2023-06-10T13:44:06;6.78;;;3.72;;
75459;SDS011;64039;53.060;9.342;2023-06-10T13:46:32;6.03;;;3.28;;
75459;SDS011;64039;53.060;9.342;2023-06-10T13:48:58;6.28;;;3.80;;
75459;SDS011;64039;53.060;9.342;2023-06-10T13:51:24;8.27;;;3.97;;
75459;SDS011;64039;53.060;9.342;2023-06-10T13:53:49;5.10;;;3.53;;
75459;SDS011;64039;53.060;9.342;2023-06-10T13:56:17;7.55;;;3.58;;
75459;SDS011;64039;53.060;9.342;2023-06-10T13:58:43;8.00;;;4.00;;
75459;SDS011;64039;53.060;9.342;2023-06-10T14:01:08;4.95;;;3.78;;
75459;SDS011;64039;53.060;9.342;2023-06-10T14:03:34;5.05;;;3.47;;
75459;SDS011;64039;53.060;9.342;2023-06-10T14:05:59;6.22;;;4.10;;
75459;SDS011;64039;53.060;9.342;2023-06-10T14:08:25;6.57;;;4.00;;
75459;SDS011;64039;53.060;9.342;2023-06-10T14:10:50;6.00;;;4.10;;
75459;SDS011;64039;53.060;9.342;2023-06-10T14:13:17;6.35;;;4.10;;
75459;SDS011;64039;53.060;9.342;2023-06-10T14:15:42;6.85;;;4.13;;
75459;SDS011;64039;53.060;9.342;2023-06-10T14:18:08;7.95;;;4.30;;
75459;SDS011;64039;53.060;9.342;2023-06-10T14:20:34;5.70;;;4.43;;
75459;SDS011;64039;53.060;9.342;2023-06-10T14:22:59;7.43;;;4.05;;
75459;SDS011;64039;53.060;9.342;2023-06-10T14:25:25;11.55;;;4.53;;
75459;SDS011;64039;53.060;9.342;2023-06-10T14:27:50;5.90;;;4.53;;
75459;SDS011;64039;53.060;9.342;2023-06-10T14:30:16;6.90;;;4.50;;
75459;SDS011;64039;53.060;9.342;2023-06-10T14:32:42;7.65;;;4.25;;
75459;SDS011;64039;53.060;9.342;2023-06-10T14:35:08;5.93;;;4.28;;
75459;SDS011;64039;53.060;9.342;2023-06-10T14:37:33;10.02;;;4.50;;
75459;SDS011;64039;53.060;9.342;2023-06-10T14:39:59;6.40;;;4.30;;
75459;SDS011;64039;53.060;9.342;2023-06-10T14:42:24;6.60;;;4.35;;
75459;SDS011;64039;53.060;9.342;2023-06-10T14:44:50;5.60;;;4.32;;
75459;SDS011;64039;53.060;9.342;2023-06-10T14:47:15;5.97;;;4.57;;
75459;SDS011;64039;53.060;9.342;2023-06-10T14:49:41;8.35;;;4.68;;
75459;SDS011;64039;53.060;9.342;2023-06-10T14:52:07;12.38;;;4.75;;
75459;SDS011;64039;53.060;9.342;2023-06-10T14:54:33;8.10;;;4.40;;
75459;SDS011;64039;53.060;9.342;2023-06-10T14:56:59;7.07;;;4.78;;
75459;SDS011;64039;53.060;9.342;2023-06-10T14:59:24;6.72;;;4.60;;